Time;durP1;ratioP1;P1;durP2;ratioP2;P2;SDS_P1;SDS_P2;PMS_P1;PMS_P2;Temp;Humidity;BMP_temperature;BMP_pressure;BME280_temperature;BME280_humidity;BME280_pressure;Samples;Min_cycle;Max_cycle;Signal;HPM_P1;HPM_P2
2022/10/31 00:02:24;;;;;;;6.43;2.35;;;;;;;17.33;54.08;97647.03;4864414;28;20661;-74
2022/10/31 00:04:50;;;;;;;4.75;2.03;;;;;;;17.28;54.46;97643.66;4869193;29;20289;-75
2022/10/31 00:07:15;;;;;;;3.90;2.15;;;;;;;17.12;55.03;97645.59;4867440;29;20307;-74
2022/10/31 00:09:40;;;;;;;3.72;1.85;;;;;;;17.01;55.62;97648.31;4881825;28;20254;-74
2022/10/31 00:12:06;;;;;;;4.63;2.15;;;;;;;16.91;55.44;97642.34;4881981;28;20305;-74
2022/10/31 00:14:31;;;;;;;4.20;2.17;;;;;;;16.94;55.33;97658.34;4866786;28;20277;-75
2022/10/31 00:16:56;;;;;;;5.07;2.15;;;;;;;16.95;54.93;97652.06;4867283;29;20169;-75
2022/10/31 00:19:21;;;;;;;4.38;2.17;;;;;;;16.93;54.70;97648.09;4883556;28;20270;-74
2022/10/31 00:21:47;;;;;;;5.13;2.03;;;;;;;16.81;55.04;97648.41;4847475;29;20211;-74
2022/10/31 00:24:12;;;;;;;3.35;1.85;;;;;;;16.73;55.80;97635.88;4867697;29;20378;-74
2022/10/31 00:26:37;;;;;;;5.63;1.70;;;;;;;16.71;55.89;97643.22;4850700;29;20750;-75
2022/10/31 00:29:03;;;;;;;4.80;2.22;;;;;;;16.68;55.76;97647.19;4883672;28;20215;-74
2022/10/31 00:31:29;;;;;;;4.15;1.60;;;;;;;16.68;55.49;97644.56;4868072;28;20230;-74
2022/10/31 00:33:54;;;;;;;4.30;1.85;;;;;;;16.65;55.60;97645.09;4860676;29;20298;-75
2022/10/31 00:36:20;;;;;;;6.63;2.50;;;;;;;16.59;55.44;97639.09;4880741;28;20199;-74
2022/10/31 00:38:46;;;;;;;6.97;2.20;;;;;;;16.61;55.81;97647.47;4866747;29;20259;-74
2022/10/31 00:41:13;;;;;;;6.85;2.88;;;;;;;16.52;56.25;97645.69;4867551;29;20310;-75
2022/10/31 00:43:38;;;;;;;1.80;1.48;;;;;;;16.56;55.98;97649.38;4865957;28;20278;-74
2022/10/31 00:46:04;;;;;;;5.00;2.10;;;;;;;16.60;55.67;97653.00;4846942;29;20281;-74
2022/10/31 00:48:29;;;;;;;4.40;1.85;;;;;;;16.56;55.98;97650.16;4867695;29;20286;-75
2022/10/31 00:50:54;;;;;;;3.05;1.77;;;;;;;16.48;56.21;97645.44;4867651;29;20280;-75
2022/10/31 00:53:20;;;;;;;3.72;2.00;;;;;;;16.43;56.57;97648.09;4835721;29;20196;-74
2022/10/31 00:55:45;;;;;;;4.57;1.73;;;;;;;16.45;56.32;97648.59;4883284;28;20297;-74
2022/10/31 00:58:11;;;;;;;5.18;2.15;;;;;;;16.46;56.41;97643.09;4851877;29;20250;-74
2022/10/31 01:00:36;;;;;;;4.20;2.10;;;;;;;16.43;56.79;97640.22;4869376;29;20365;-74
2022/10/31 01:03:01;;;;;;;3.45;2.00;;;;;;;16.45;56.89;97635.47;4850693;29;20767;-74
2022/10/31 01:05:27;;;;;;;3.83;2.10;;;;;;;16.53;56.38;97648.06;4867753;29;20283;-75
2022/10/31 01:07:52;;;;;;;4.35;1.75;;;;;;;16.58;56.22;97640.13;4851508;28;20241;-75
2022/10/31 01:10:18;;;;;;;6.95;1.98;;;;;;;16.64;56.04;97633.81;4866499;29;20286;-74
2022/10/31 01:12:48;;;;;;;4.13;2.25;;;;;;;16.69;56.20;97633.00;4866719;29;20219;-74
2022/10/31 01:15:21;;;;;;;5.05;2.05;;;;;;;16.54;56.95;97628.59;4881876;28;20342;-74
2022/10/31 01:17:47;;;;;;;3.20;1.80;;;;;;;16.64;56.08;97641.69;4881666;28;20361;-74
2022/10/31 01:20:15;;;;;;;7.18;2.53;;;;;;;16.77;55.85;97639.50;4886295;28;20193;-74
2022/10/31 01:22:40;;;;;;;4.95;2.45;;;;;;;16.69;55.88;97637.44;4866005;29;20243;-74
2022/10/31 01:25:06;;;;;;;4.88;2.20;;;;;;;16.66;56.21;97633.53;4850438;29;20642;-74
2022/10/31 01:27:32;;;;;;;3.30;1.85;;;;;;;16.58;56.38;97637.50;4849816;29;20199;-74
2022/10/31 01:29:57;;;;;;;5.57;1.98;;;;;;;16.54;57.00;97635.72;4866401;29;20277;-74
2022/10/31 01:32:23;;;;;;;5.28;1.98;;;;;;;16.51;56.96;97629.13;4849661;29;20234;-74
2022/10/31 01:34:49;;;;;;;4.63;1.80;;;;;;;16.45;57.46;97624.94;4860820;29;20291;-74
2022/10/31 01:37:14;;;;;;;8.32;2.75;;;;;;;16.48;56.89;97635.75;4866559;29;20194;-74
2022/10/31 01:39:39;;;;;;;3.45;1.80;;;;;;;16.50;56.83;97640.69;4853482;29;20627;-74
2022/10/31 01:42:05;;;;;;;4.85;1.77;;;;;;;16.48;56.82;97633.13;4863824;29;20294;-75
2022/10/31 01:44:30;;;;;;;3.28;1.92;;;;;;;16.45;56.95;97635.47;4849168;28;20351;-74
2022/10/31 01:46:58;;;;;;;5.90;2.10;;;;;;;16.47;56.97;97638.63;4865151;29;20279;-75
2022/10/31 01:49:29;;;;;;;5.07;1.70;;;;;;;16.52;57.06;97638.59;4866398;29;20195;-74
2022/10/31 01:51:58;;;;;;;5.03;2.25;;;;;;;16.54;56.63;97641.75;4858173;29;20254;-74
2022/10/31 01:54:40;;;;;;;2.55;1.80;;;;;;;16.56;56.64;97634.38;4877561;28;20203;-74
2022/10/31 01:57:08;;;;;;;4.72;1.90;;;;;;;16.54;57.06;97636.50;4862751;29;20273;-74
2022/10/31 01:59:38;;;;;;;5.38;2.50;;;;;;;16.49;57.83;97628.63;4860896;29;20313;-74
2022/10/31 02:02:03;;;;;;;2.92;1.70;;;;;;;16.45;57.12;97631.00;4863752;29;20283;-74
2022/10/31 02:04:29;;;;;;;3.47;2.28;;;;;;;16.43;57.66;97633.13;4864622;29;20270;-74
2022/10/31 02:07:07;;;;;;;3.17;1.90;;;;;;;16.55;57.31;97637.25;4846209;29;20218;-74
2022/10/31 02:09:33;;;;;;;5.72;2.55;;;;;;;16.37;57.85;97636.84;4863341;28;20534;-74
2022/10/31 02:11:59;;;;;;;5.43;2.22;;;;;;;16.36;58.15;97635.25;4865547;29;20201;-74
2022/10/31 02:14:26;;;;;;;4.75;2.83;;;;;;;16.40;58.23;97632.88;4865324;29;20698;-74
2022/10/31 02:16:53;;;;;;;5.22;2.53;;;;;;;16.39;57.93;97636.56;4849236;29;20633;-74
2022/10/31 02:19:28;;;;;;;5.88;2.00;;;;;;;16.52;58.00;97638.59;4888387;28;20234;-75
2022/10/31 02:22:02;;;;;;;3.05;2.35;;;;;;;16.53;57.91;97628.88;4865945;28;20380;-75
2022/10/31 02:24:55;;;;;;;7.25;2.42;;;;;;;16.58;57.94;97624.38;4834139;29;20230;-74
2022/10/31 02:27:36;;;;;;;5.53;2.38;;;;;;;16.63;58.08;97623.56;4845304;29;20642;-74
2022/10/31 02:30:18;;;;;;;5.05;2.15;;;;;;;16.62;57.97;97624.59;4890830;28;20645;-74
2022/10/31 02:32:47;;;;;;;3.88;2.08;;;;;;;16.51;58.19;97615.22;4879317;28;20112;-74
2022/10/31 02:35:28;;;;;;;3.55;2.15;;;;;;;16.71;57.84;97609.03;4861573;29;20173;-74
2022/10/31 02:38:12;;;;;;;3.85;1.90;;;;;;;16.63;58.09;97613.03;4880922;28;20108;-74
2022/10/31 02:41:01;;;;;;;3.58;1.98;;;;;;;16.73;57.52;97606.94;4848380;29;20172;-74
2022/10/31 02:43:32;;;;;;;3.08;2.30;;;;;;;16.60;58.39;97609.09;4831536;29;20194;-74
2022/10/31 02:46:03;;;;;;;4.78;2.53;;;;;;;16.63;58.33;97599.91;4848903;29;20211;-74
2022/10/31 02:48:29;;;;;;;3.70;2.28;;;;;;;16.60;58.38;97589.91;4848917;29;20278;-74
2022/10/31 02:50:58;;;;;;;5.43;2.30;;;;;;;16.63;58.55;97592.00;4866656;29;20211;-74
2022/10/31 02:53:23;;;;;;;5.07;2.25;;;;;;;16.58;58.45;97595.44;4867063;29;20704;-75
2022/10/31 02:55:54;;;;;;;4.32;2.20;;;;;;;16.63;58.43;97598.03;4866275;29;20291;-74
2022/10/31 02:58:22;;;;;;;4.35;1.98;;;;;;;16.64;58.45;97590.97;4868608;29;20172;-74
2022/10/31 03:01:07;;;;;;;4.70;2.10;;;;;;;16.80;58.08;97596.91;4866764;29;20164;-74
2022/10/31 03:03:52;;;;;;;4.75;2.22;;;;;;;16.76;58.20;97591.41;4896635;28;20282;-74
2022/10/31 03:06:20;;;;;;;;;;;;;;;16.85;57.82;97589.78;4892880;28;20571;-74
2022/10/31 03:08:50;;;;;;;2.72;1.88;;;;;;;16.76;58.28;97601.09;4860412;29;20486;-74
2022/10/31 03:11:17;;;;;;;4.50;2.25;;;;;;;16.67;58.58;97591.19;4876203;28;20690;-74
2022/10/31 03:13:45;;;;;;;3.78;2.20;;;;;;;16.69;58.83;97596.19;4866844;29;20661;-75
2022/10/31 03:16:29;;;;;;;3.53;2.03;;;;;;;16.77;58.69;97598.22;4889771;28;20263;-74
2022/10/31 03:18:57;;;;;;;3.13;2.15;;;;;;;16.65;59.22;97598.56;4881750;28;20203;-75
2022/10/31 03:21:46;;;;;;;4.53;2.10;;;;;;;16.58;58.94;97595.44;4865490;28;20204;-74
2022/10/31 03:24:12;;;;;;;4.88;2.45;;;;;;;16.52;59.05;97599.19;4854168;29;20623;-75
2022/10/31 03:26:41;;;;;;;5.43;2.63;;;;;;;16.58;58.72;97595.44;4881844;28;20372;-75
2022/10/31 03:29:09;;;;;;;4.35;1.92;;;;;;;16.51;58.73;97602.84;4852319;29;20188;-74
2022/10/31 03:31:45;;;;;;;3.83;2.08;;;;;;;16.60;58.39;97598.59;4850423;29;20245;-74
2022/10/31 03:34:12;;;;;;;5.63;2.80;;;;;;;16.46;58.79;97597.63;4868779;29;20190;-74
2022/10/31 03:36:39;;;;;;;3.67;2.25;;;;;;;16.43;58.51;97598.16;4885328;28;20293;-74
2022/10/31 03:39:06;;;;;;;5.25;2.65;;;;;;;16.44;58.62;97594.50;4853726;29;20379;-74
2022/10/31 03:41:35;;;;;;;4.55;2.38;;;;;;;16.41;58.28;97592.41;4853264;29;20330;-74
2022/10/31 03:44:08;;;;;;;6.03;2.42;;;;;;;16.51;58.32;97600.22;4868983;29;20172;-74
2022/10/31 03:46:34;;;;;;;4.47;2.20;;;;;;;16.35;58.49;97599.53;4869080;28;20713;-74
2022/10/31 03:48:59;;;;;;;3.63;1.98;;;;;;;16.33;58.43;97603.47;4868891;28;20195;-74
2022/10/31 03:51:31;;;;;;;4.00;2.38;;;;;;;16.40;58.45;97593.44;4884762;28;20186;-74
2022/10/31 03:54:17;;;;;;;5.85;2.03;;;;;;;16.53;57.96;97600.72;4871332;28;20386;-74
2022/10/31 03:57:02;;;;;;;6.00;2.80;;;;;;;16.35;57.80;97596.09;4868754;29;20195;-74
2022/10/31 03:59:41;;;;;;;6.38;2.58;;;;;;;16.40;58.49;97599.50;4884791;28;20310;-74
2022/10/31 04:02:10;;;;;;;5.97;2.30;;;;;;;16.26;58.43;97590.63;4852546;29;20256;-74
2022/10/31 04:04:36;;;;;;;6.05;2.20;;;;;;;16.18;58.49;97597.25;4868466;29;20250;-75
2022/10/31 04:07:03;;;;;;;6.38;2.72;;;;;;;16.17;59.16;97602.78;4869198;29;20245;-74
2022/10/31 04:09:31;;;;;;;4.70;2.22;;;;;;;16.20;59.11;97602.22;4869002;29;20247;-74
2022/10/31 04:11:58;;;;;;;3.50;1.90;;;;;;;16.11;59.63;97602.00;4884214;28;20187;-75
2022/10/31 04:14:25;;;;;;;3.40;1.75;;;;;;;16.12;59.04;97600.94;4868875;29;20295;-74
2022/10/31 04:16:51;;;;;;;8.32;2.47;;;;;;;16.04;59.23;97598.88;4868402;29;20199;-74
2022/10/31 04:19:16;;;;;;;7.03;2.63;;;;;;;16.05;59.39;97606.47;4884374;28;20629;-74
2022/10/31 04:21:44;;;;;;;3.60;2.25;;;;;;;16.06;59.60;97609.91;4849326;29;20199;-74
2022/10/31 04:24:10;;;;;;;5.43;2.58;;;;;;;16.06;59.38;97600.19;4884731;28;20202;-74
2022/10/31 04:26:35;;;;;;;5.95;2.72;;;;;;;16.08;59.30;97597.28;4851695;29;20276;-74
2022/10/31 04:29:01;;;;;;;5.20;2.38;;;;;;;16.08;59.72;97592.03;4884918;28;20581;-74
2022/10/31 04:31:26;;;;;;;4.35;2.45;;;;;;;16.07;59.33;97593.09;4868744;29;20209;-75
2022/10/31 04:33:52;;;;;;;8.55;2.47;;;;;;;16.08;59.52;97592.03;4868343;29;20645;-74
2022/10/31 04:36:17;;;;;;;4.78;2.40;;;;;;;16.08;59.48;97589.41;4868744;29;20271;-74
2022/10/31 04:38:42;;;;;;;4.53;2.45;;;;;;;16.08;59.55;97586.78;4868768;29;20236;-74
2022/10/31 04:41:08;;;;;;;6.38;2.70;;;;;;;16.05;59.54;97592.56;4868320;29;20333;-74
2022/10/31 04:43:33;;;;;;;5.97;2.30;;;;;;;16.10;59.59;97580.19;4867959;28;20262;-74
2022/10/31 04:45:58;;;;;;;4.75;2.08;;;;;;;16.16;59.34;97588.84;4868006;28;20364;-74
2022/10/31 04:48:24;;;;;;;4.70;2.47;;;;;;;16.11;59.17;97586.25;4867995;29;20199;-74
2022/10/31 04:50:50;;;;;;;7.50;2.58;;;;;;;16.07;59.33;97585.19;4852318;29;20196;-74
2022/10/31 04:53:15;;;;;;;5.00;2.22;;;;;;;16.06;59.86;97578.41;4864501;29;20176;-75
2022/10/31 04:55:41;;;;;;;5.50;2.78;;;;;;;16.03;59.57;97578.94;4867720;29;20094;-74
2022/10/31 04:58:06;;;;;;;3.53;1.95;;;;;;;16.05;59.56;97582.06;4869807;29;20700;-74
2022/10/31 05:00:31;;;;;;;6.03;2.17;;;;;;;16.07;59.35;97585.19;4836510;29;20167;-74
2022/10/31 05:02:57;;;;;;;6.32;2.75;;;;;;;16.07;59.29;97579.94;4867272;29;20206;-75
2022/10/31 05:05:29;;;;;;;5.03;2.75;;;;;;;16.12;59.29;97574.66;4867661;29;20215;-75
2022/10/31 05:07:54;;;;;;;5.53;2.63;;;;;;;16.05;59.19;97582.06;4869932;29;20165;-74
2022/10/31 05:10:25;;;;;;;4.68;2.58;;;;;;;16.04;59.25;97577.84;4868050;29;20203;-74
2022/10/31 05:12:55;;;;;;;6.00;2.58;;;;;;;16.04;59.14;97580.47;4867935;29;20705;-74
2022/10/31 05:15:22;;;;;;;5.45;2.75;;;;;;;16.04;59.13;97575.22;4852372;29;20594;-75
2022/10/31 05:17:48;;;;;;;6.05;2.53;;;;;;;15.99;59.42;97567.38;4877626;28;20639;-75
2022/10/31 05:20:15;;;;;;;4.50;2.97;;;;;;;15.95;59.55;97568.97;4867590;29;20289;-74
2022/10/31 05:22:45;;;;;;;4.68;1.90;;;;;;;16.05;59.39;97566.31;4851471;29;20653;-74
2022/10/31 05:25:11;;;;;;;7.07;2.47;;;;;;;15.97;59.33;97570.28;4855291;29;20285;-74
2022/10/31 05:27:41;;;;;;;3.88;2.10;;;;;;;16.01;58.93;97567.91;4866730;28;20198;-75
2022/10/31 05:30:07;;;;;;;5.20;3.00;;;;;;;15.96;58.93;97568.72;4883822;28;20252;-74
2022/10/31 05:32:43;;;;;;;4.30;2.90;;;;;;;16.06;59.05;97560.00;4867808;28;20442;-74
2022/10/31 05:35:12;;;;;;;6.65;2.90;;;;;;;15.98;59.55;97560.56;4867927;29;20662;-74
2022/10/31 05:37:40;;;;;;;4.38;2.60;;;;;;;15.99;59.37;97554.25;4867490;29;20215;-74
2022/10/31 05:40:08;;;;;;;4.20;2.40;;;;;;;15.96;59.38;97550.31;4867720;29;20217;-75
2022/10/31 05:42:33;;;;;;;5.88;2.42;;;;;;;15.93;59.38;97540.34;4869212;29;20269;-74
2022/10/31 05:44:59;;;;;;;4.82;2.45;;;;;;;15.91;59.53;97540.63;4863367;28;20266;-75
2022/10/31 05:47:24;;;;;;;6.82;2.38;;;;;;;15.85;59.34;97544.34;4867282;29;20207;-75
2022/10/31 05:49:50;;;;;;;4.75;2.25;;;;;;;15.80;59.15;97541.72;4867808;29;20400;-74
2022/10/31 05:52:15;;;;;;;6.97;3.58;;;;;;;15.78;59.83;97535.97;4851061;29;20236;-74
2022/10/31 05:54:41;;;;;;;5.22;4.07;;;;;;;15.77;59.90;97539.63;4869431;28;20689;-75
2022/10/31 05:57:06;;;;;;;7.65;3.45;;;;;;;15.74;60.02;97535.66;4868363;29;20537;-74
2022/10/31 05:59:31;;;;;;;6.07;3.58;;;;;;;15.77;59.48;97536.25;4882903;28;20201;-74
2022/10/31 06:01:57;;;;;;;6.25;3.10;;;;;;;15.77;59.38;97550.13;4865890;29;20195;-74
2022/10/31 06:04:22;;;;;;;6.32;2.90;;;;;;;15.81;59.27;97538.03;4865583;29;20286;-75
2022/10/31 06:06:47;;;;;;;5.95;3.05;;;;;;;15.75;59.61;97544.38;4849942;29;20181;-74
2022/10/31 06:09:13;;;;;;;6.85;3.30;;;;;;;15.75;59.89;97536.50;4866423;29;20814;-74
2022/10/31 06:11:38;;;;;;;6.75;2.88;;;;;;;15.74;59.98;97537.50;4867990;29;20282;-75
2022/10/31 06:14:04;;;;;;;4.40;2.75;;;;;;;15.77;59.84;97533.63;4882002;28;20283;-74
2022/10/31 06:16:29;;;;;;;6.28;3.10;;;;;;;15.79;59.97;97531.50;4866186;29;20284;-74
2022/10/31 06:18:55;;;;;;;4.78;2.45;;;;;;;15.78;59.19;97535.16;4866159;29;20141;-74
2022/10/31 06:21:20;;;;;;;7.45;2.63;;;;;;;15.76;59.54;97524.94;4865648;29;20227;-75
2022/10/31 06:23:45;;;;;;;6.10;2.47;;;;;;;15.79;59.23;97532.28;4865259;29;20231;-74
2022/10/31 06:26:11;;;;;;;5.97;2.88;;;;;;;15.84;58.93;97539.34;4865392;29;20171;-74
2022/10/31 06:28:36;;;;;;;7.05;2.95;;;;;;;15.95;58.57;97534.84;4850510;29;20275;-74
2022/10/31 06:31:01;;;;;;;5.10;2.20;;;;;;;15.96;58.65;97539.81;4865287;29;20290;-74
2022/10/31 06:33:27;;;;;;;4.72;2.65;;;;;;;15.94;58.77;97541.13;4866191;29;20282;-74
2022/10/31 06:35:52;;;;;;;6.68;2.25;;;;;;;15.98;58.93;97544.81;4865759;29;20200;-74
2022/10/31 06:38:17;;;;;;;5.50;3.25;;;;;;;15.99;59.29;97541.09;4862843;29;20210;-74
2022/10/31 06:40:43;;;;;;;5.95;2.20;;;;;;;16.04;59.01;97539.25;4864503;29;20277;-74
2022/10/31 06:43:08;;;;;;;6.63;2.33;;;;;;;16.15;58.69;97540.00;4849509;29;20360;-74
2022/10/31 06:45:33;;;;;;;4.60;2.28;;;;;;;16.21;58.77;97533.66;4890859;28;20271;-74
2022/10/31 06:47:59;;;;;;;5.20;2.85;;;;;;;16.23;58.79;97536.78;4880083;28;20278;-74
2022/10/31 06:50:24;;;;;;;9.88;3.72;;;;;;;16.32;58.76;97538.84;4849824;29;20633;-74
2022/10/31 06:52:54;;;;;;;7.13;3.20;;;;;;;16.47;58.23;97541.38;4866811;29;20201;-74
2022/10/31 06:55:22;;;;;;;5.57;2.42;;;;;;;16.40;57.99;97544.31;4866384;29;20211;-74
2022/10/31 06:57:58;;;;;;;8.52;3.08;;;;;;;16.48;58.48;97537.69;4851373;29;20594;-74
2022/10/31 07:00:25;;;;;;;7.10;2.72;;;;;;;16.41;58.65;97539.84;4866009;29;20196;-74
2022/10/31 07:03:01;;;;;;;5.28;3.08;;;;;;;16.55;58.44;97543.41;4850930;29;20846;-74
2022/10/31 07:05:27;;;;;;;4.70;2.35;;;;;;;16.51;58.22;97544.25;4860613;29;20117;-74
2022/10/31 07:07:57;;;;;;;6.68;2.50;;;;;;;16.61;58.51;97538.91;4870922;28;20282;-74
2022/10/31 07:10:23;;;;;;;5.97;2.65;;;;;;;16.59;58.62;97539.19;4873507;28;20249;-75
2022/10/31 07:12:57;;;;;;;6.35;4.10;;;;;;;16.75;57.67;97539.06;4867232;29;20249;-74
2022/10/31 07:15:23;;;;;;;6.50;3.30;;;;;;;16.77;57.36;97537.72;4869219;29;20183;-74
2022/10/31 07:17:49;;;;;;;7.53;2.97;;;;;;;16.88;57.31;97543.75;4853763;29;20291;-75
2022/10/31 07:20:14;;;;;;;6.38;2.45;;;;;;;17.02;56.89;97546.50;4866688;29;20275;-74
2022/10/31 07:22:40;;;;;;;7.50;2.17;;;;;;;17.07;57.13;97543.84;4870923;28;20645;-75
2022/10/31 07:25:05;;;;;;;6.20;3.13;;;;;;;17.19;56.84;97549.50;4886005;28;20199;-74
2022/10/31 07:27:49;;;;;;;6.80;3.33;;;;;;;17.43;55.67;97556.66;4854121;29;20308;-75
2022/10/31 07:30:19;;;;;;;9.50;3.58;;;;;;;17.43;55.34;97556.66;4854202;29;20796;-74
2022/10/31 07:32:49;;;;;;;11.00;4.00;;;;;;;17.58;55.49;97561.75;4870008;29;20312;-75
2022/10/31 07:35:17;;;;;;;8.20;4.25;;;;;;;17.50;56.22;97553.69;4869683;29;20254;-75
2022/10/31 07:37:42;;;;;;;7.88;3.55;;;;;;;17.54;56.08;97554.69;4869479;29;20654;-74
2022/10/31 07:40:08;;;;;;;6.15;3.47;;;;;;;17.49;56.19;97554.75;4856031;29;20194;-75
2022/10/31 07:42:35;;;;;;;4.88;3.17;;;;;;;17.50;56.97;97556.31;4853758;29;20220;-74
2022/10/31 07:45:01;;;;;;;8.45;3.67;;;;;;;17.48;57.51;97550.53;4866955;28;20250;-74
2022/10/31 07:47:26;;;;;;;7.45;3.63;;;;;;;17.54;57.95;97558.09;4867821;29;20691;-75
2022/10/31 07:49:51;;;;;;;10.75;4.20;;;;;;;17.54;57.57;97549.44;4869283;29;20709;-74
2022/10/31 07:52:17;;;;;;;9.98;4.05;;;;;;;17.58;57.73;97548.59;4868991;29;20290;-75
2022/10/31 07:54:42;;;;;;;10.50;4.35;;;;;;;17.62;58.00;97558.56;4884447;28;20776;-74
2022/10/31 07:57:07;;;;;;;8.80;4.38;;;;;;;17.67;58.06;97551.38;4885122;28;20266;-75
2022/10/31 07:59:33;;;;;;;9.05;4.30;;;;;;;17.76;57.97;97551.56;4868201;29;20271;-75
2022/10/31 08:01:58;;;;;;;8.15;4.63;;;;;;;17.83;58.28;97553.84;4884999;28;20190;-75
2022/10/31 08:04:23;;;;;;;6.85;4.15;;;;;;;17.94;58.12;97552.66;4871728;28;20202;-75
2022/10/31 08:06:49;;;;;;;8.95;4.88;;;;;;;18.02;57.92;97559.94;4869630;29;20223;-75
2022/10/31 08:09:14;;;;;;;5.95;4.10;;;;;;;18.09;57.92;97554.34;4871519;28;20291;-75
2022/10/31 08:11:39;;;;;;;8.57;4.95;;;;;;;18.16;57.24;97562.66;4867987;28;20253;-75
2022/10/31 08:14:05;;;;;;;8.38;4.82;;;;;;;18.17;57.06;97553.72;4836637;29;20290;-75
2022/10/31 08:16:30;;;;;;;7.28;4.60;;;;;;;18.21;56.75;97556.56;4883272;28;20172;-75
2022/10/31 08:18:56;;;;;;;7.93;4.15;;;;;;;18.24;56.81;97556.00;4868590;28;20286;-75
2022/10/31 08:21:21;;;;;;;8.25;4.70;;;;;;;18.33;56.98;97563.00;4852491;29;20211;-75
2022/10/31 08:23:47;;;;;;;8.75;4.47;;;;;;;18.39;56.62;97561.06;4869562;29;20203;-75
2022/10/31 08:26:12;;;;;;;7.97;5.00;;;;;;;18.47;56.27;97565.69;4853290;29;20192;-75
2022/10/31 08:28:37;;;;;;;10.77;4.78;;;;;;;18.45;56.53;97557.25;4871298;29;20391;-75
2022/10/31 08:31:03;;;;;;;8.55;5.80;;;;;;;18.48;57.24;97553.28;4870969;29;20287;-75
2022/10/31 08:33:28;;;;;;;8.88;6.53;;;;;;;18.46;57.37;97556.19;4846332;29;20205;-75
2022/10/31 08:35:53;;;;;;;11.10;7.45;;;;;;;18.50;57.29;97565.09;4866175;28;20274;-75
2022/10/31 08:38:19;;;;;;;10.50;6.88;;;;;;;18.55;57.14;97552.91;4837923;29;20286;-75
2022/10/31 08:40:48;;;;;;;9.10;5.80;;;;;;;18.68;57.01;97558.25;4852491;29;20161;-75
2022/10/31 08:43:15;;;;;;;8.23;4.30;;;;;;;18.69;55.47;97554.53;4852858;29;20192;-75
2022/10/31 08:45:41;;;;;;;7.72;3.80;;;;;;;18.75;54.59;97557.09;4889334;28;20263;-75
2022/10/31 08:48:10;;;;;;;6.55;3.40;;;;;;;18.86;54.16;97554.03;4868154;29;20293;-75
2022/10/31 08:50:36;;;;;;;5.78;3.10;;;;;;;18.86;54.51;97559.31;4852477;29;20677;-75
2022/10/31 08:53:04;;;;;;;4.63;2.75;;;;;;;18.94;54.28;97544.69;4868927;29;20253;-75
2022/10/31 08:55:30;;;;;;;5.72;2.65;;;;;;;18.98;54.17;97550.16;4868489;29;20684;-75
2022/10/31 08:57:56;;;;;;;4.97;2.40;;;;;;;19.05;54.31;97548.69;4868717;29;20286;-75
2022/10/31 09:00:22;;;;;;;4.97;2.58;;;;;;;19.09;54.18;97543.66;4836652;29;20183;-75
2022/10/31 09:02:47;;;;;;;6.53;2.80;;;;;;;19.12;53.88;97539.63;4868800;29;20219;-75
2022/10/31 09:05:12;;;;;;;4.10;2.28;;;;;;;19.20;53.22;97537.09;4870365;29;20300;-75
2022/10/31 09:07:38;;;;;;;5.40;2.30;;;;;;;19.24;53.44;97537.31;4868621;29;20169;-75
2022/10/31 09:10:03;;;;;;;4.05;2.40;;;;;;;19.31;53.40;97536.91;4868925;29;20640;-75
2022/10/31 09:12:29;;;;;;;5.70;3.00;;;;;;;19.33;53.89;97535.56;4883927;28;20130;-75
2022/10/31 09:14:54;;;;;;;4.65;2.92;;;;;;;19.34;52.88;97521.28;4870440;29;20214;-75
2022/10/31 09:17:19;;;;;;;4.95;2.38;;;;;;;19.39;53.34;97518.53;4852389;29;20367;-75
2022/10/31 09:19:45;;;;;;;6.70;3.00;;;;;;;19.48;52.58;97523.13;4870026;29;20199;-74
2022/10/31 09:22:10;;;;;;;2.97;2.03;;;;;;;19.51;52.58;97523.34;4869668;29;20733;-75
2022/10/31 09:24:35;;;;;;;3.10;1.85;;;;;;;19.60;52.75;97518.94;4868529;29;20611;-75
2022/10/31 09:27:00;;;;;;;5.13;2.40;;;;;;;19.69;52.42;97515.59;4852310;29;20266;-75
2022/10/31 09:29:26;;;;;;;3.47;2.33;;;;;;;19.80;52.32;97517.00;4867569;28;20294;-75
2022/10/31 09:31:51;;;;;;;6.10;2.60;;;;;;;19.89;52.07;97512.56;4867632;29;20677;-74
2022/10/31 09:34:16;;;;;;;7.88;2.50;;;;;;;19.97;52.61;97514.50;4869385;29;20710;-75
2022/10/31 09:36:42;;;;;;;4.05;2.50;;;;;;;20.05;52.83;97506.94;4869940;29;20214;-75
2022/10/31 09:39:08;;;;;;;6.32;2.63;;;;;;;20.14;52.44;97510.47;4867764;29;20379;-75
2022/10/31 09:42:28;;;;;;;5.80;3.05;;;;;;;20.40;52.03;97515.97;4869518;29;20282;-75
2022/10/31 09:45:04;;;;;;;3.85;2.20;;;;;;;20.47;52.11;97507.63;4831326;29;20285;-75
2022/10/31 09:47:52;;;;;;;5.18;2.42;;;;;;;20.53;51.57;97506.41;4824346;29;20307;-75
2022/10/31 09:50:41;;;;;;;5.68;2.83;;;;;;;20.54;52.74;97500.03;4846082;29;20187;-75
2022/10/31 09:53:27;;;;;;;4.72;2.53;;;;;;;20.61;52.78;97497.75;4846400;29;20369;-75
2022/10/31 09:55:52;;;;;;;8.63;2.88;;;;;;;20.61;52.25;97503.03;4827413;29;20333;-75
2022/10/31 09:58:25;;;;;;;7.18;3.00;;;;;;;20.75;52.06;97493.19;4815302;29;20221;-75
2022/10/31 10:00:51;;;;;;;4.93;2.80;;;;;;;20.72;52.30;97493.81;4846569;29;20734;-75
2022/10/31 10:03:33;;;;;;;6.03;3.50;;;;;;;20.96;51.79;97490.03;4815459;29;20281;-75
2022/10/31 10:06:04;;;;;;;7.85;3.33;;;;;;;20.87;51.92;97492.66;4846591;29;20221;-75
2022/10/31 10:08:31;;;;;;;6.82;3.05;;;;;;;20.94;51.36;97484.28;4830952;29;20114;-75
2022/10/31 10:11:25;;;;;;;7.50;3.53;;;;;;;21.18;51.06;97488.41;4846027;29;20210;-75
2022/10/31 10:14:11;;;;;;;6.60;3.15;;;;;;;21.38;50.58;97484.44;4846430;29;20181;-75
2022/10/31 10:17:03;;;;;;;7.80;3.08;;;;;;;21.40;50.25;97488.31;4846739;29;20601;-75
2022/10/31 10:19:52;;;;;;;7.80;2.38;;;;;;;21.63;50.47;97489.06;4859894;28;20357;-75
2022/10/31 10:22:40;;;;;;;4.80;2.40;;;;;;;21.70;49.90;97484.06;4866523;29;20269;-75
2022/10/31 10:25:13;;;;;;;6.03;2.33;;;;;;;21.75;50.58;97487.69;4867128;29;20188;-75
2022/10/31 10:27:58;;;;;;;4.43;2.20;;;;;;;22.00;49.76;97486.13;4851639;29;20219;-75
2022/10/31 10:30:33;;;;;;;5.55;2.85;;;;;;;22.06;50.23;97490.19;4889932;28;20280;-75
2022/10/31 10:33:03;;;;;;;6.45;3.28;;;;;;;22.11;50.21;97492.69;4867027;28;20287;-75
2022/10/31 10:35:33;;;;;;;5.03;2.15;;;;;;;22.31;50.27;97498.50;4868092;28;20278;-75
2022/10/31 10:38:09;;;;;;;3.63;2.03;;;;;;;22.60;47.98;97488.03;4866954;29;20264;-75
2022/10/31 10:40:34;;;;;;;5.20;2.70;;;;;;;22.67;48.81;97497.34;4866378;28;20428;-75
2022/10/31 10:43:18;;;;;;;5.75;2.60;;;;;;;22.93;48.53;97495.44;4866443;29;20446;-75
2022/10/31 10:49:02;;;;;;;5.22;2.70;;;;;;;23.02;48.10;97497.28;4853376;28;20203;-75
2022/10/31 10:51:33;;;;;;;6.53;3.33;;;;;;;23.04;48.28;97489.78;4868336;28;20633;-75
2022/10/31 10:54:21;;;;;;;4.63;2.63;;;;;;;23.00;47.68;97479.00;4882911;28;20542;-75
2022/10/31 10:57:00;;;;;;;6.60;2.72;;;;;;;22.89;46.91;97475.91;4868578;29;20579;-75
2022/10/31 10:59:26;;;;;;;5.25;2.70;;;;;;;22.78;46.86;97462.19;4866795;29;20186;-75
2022/10/31 11:01:52;;;;;;;6.10;3.42;;;;;;;22.73;46.85;97458.94;4866871;29;20615;-75
2022/10/31 11:04:35;;;;;;;5.13;1.92;;;;;;;22.95;46.47;97442.78;4868353;29;20210;-75
2022/10/31 11:07:03;;;;;;;4.45;2.28;;;;;;;23.01;46.38;97451.34;4866664;29;20202;-75
2022/10/31 11:09:28;;;;;;;4.43;2.22;;;;;;;23.14;47.07;97457.59;4868739;28;20282;-75
2022/10/31 11:11:55;;;;;;;4.68;2.58;;;;;;;23.29;46.41;97451.72;4868213;29;20184;-75
2022/10/31 11:14:21;;;;;;;3.28;2.53;;;;;;;23.37;45.40;97442.94;4866900;29;20286;-75
2022/10/31 11:16:53;;;;;;;5.97;3.15;;;;;;;23.54;45.36;97438.59;4850561;29;20268;-75
2022/10/31 11:19:20;;;;;;;5.35;3.17;;;;;;;23.58;45.45;97436.88;4850980;29;20286;-75
2022/10/31 11:21:46;;;;;;;3.13;2.35;;;;;;;23.70;44.58;97436.94;4868116;29;20432;-75
2022/10/31 11:24:20;;;;;;;5.55;2.97;;;;;;;23.90;44.67;97439.94;4868032;29;20254;-75
2022/10/31 11:26:47;;;;;;;4.22;1.95;;;;;;;23.74;45.13;97432.53;4851031;29;20572;-75
2022/10/31 11:29:24;;;;;;;5.32;2.38;;;;;;;23.83;45.98;97423.75;4835081;29;20168;-75
2022/10/31 11:31:53;;;;;;;5.35;2.35;;;;;;;23.86;45.74;97420.44;4862580;29;20215;-75
2022/10/31 11:34:29;;;;;;;4.25;2.17;;;;;;;24.04;46.35;97421.84;4852920;29;20251;-75
2022/10/31 11:37:08;;;;;;;7.07;2.35;;;;;;;23.95;46.33;97421.13;4850794;29;20622;-75
2022/10/31 11:39:41;;;;;;;7.47;3.45;;;;;;;23.87;46.38;97421.97;4866582;29;20726;-75
2022/10/31 11:42:06;;;;;;;2.78;2.15;;;;;;;23.81;45.36;97416.09;4850497;29;20293;-75
2022/10/31 11:44:32;;;;;;;4.63;2.28;;;;;;;23.80;45.16;97424.34;4849532;28;20206;-75
2022/10/31 11:47:03;;;;;;;4.47;2.08;;;;;;;23.90;45.46;97413.34;4865764;29;20177;-75